createdAt,value
2022-12-08T00:01:14.650Z,78.16
2022-12-08T00:03:41.982Z,79.56
2022-12-08T00:06:38.091Z,78.76
2022-12-08T00:09:22.376Z,81.01
2022-12-08T00:11:59.431Z,80.03
2022-12-08T00:14:37.871Z,79.40
2022-12-08T00:17:06.182Z,80.58
2022-12-08T00:19:32.951Z,81.01
2022-12-08T00:21:59.751Z,79.71
2022-12-08T00:24:30.913Z,81.25
2022-12-08T00:26:57.444Z,82.08
2022-12-08T00:29:23.863Z,80.71
2022-12-08T00:31:50.773Z,80.11
2022-12-08T00:34:17.666Z,80.45
2022-12-08T00:36:44.254Z,78.47
2022-12-08T00:39:12.155Z,80.55
2022-12-08T00:41:57.164Z,78.98
2022-12-08T00:44:23.768Z,80.87
2022-12-08T00:46:50.375Z,80.54
2022-12-08T00:49:17.190Z,79.77
2022-12-08T00:51:44.114Z,79.20
2022-12-08T00:54:11.560Z,83.07
2022-12-08T00:56:38.110Z,79.92
2022-12-08T00:59:06.470Z,80.76
2022-12-08T01:01:34.241Z,80.28
2022-12-08T01:04:13.172Z,78.48
2022-12-08T01:06:39.805Z,78.39
2022-12-08T01:09:07.675Z,79.55
2022-12-08T01:11:35.351Z,81.17
2022-12-08T01:14:02.347Z,79.42
2022-12-08T01:16:32.447Z,79.01
2022-12-08T01:19:00.230Z,79.70
2022-12-08T01:21:27.340Z,81.63
2022-12-08T01:23:54.516Z,78.88
2022-12-08T01:26:21.755Z,78.52
2022-12-08T01:28:49.133Z,78.77
2022-12-08T01:31:20.795Z,77.61
2022-12-08T01:33:48.058Z,78.76
2022-12-08T01:36:26.277Z,80.06
2022-12-08T01:38:54.250Z,81.55
2022-12-08T01:41:23.839Z,78.62
2022-12-08T01:44:12.707Z,80.32
2022-12-08T01:46:44.518Z,79.61
2022-12-08T01:49:13.593Z,78.06
2022-12-08T01:51:51.618Z,78.19
2022-12-08T01:54:18.739Z,78.16
2022-12-08T01:56:58.903Z,77.13
2022-12-08T01:59:26.723Z,80.51
2022-12-08T02:01:53.259Z,80.89
2022-12-08T02:04:19.750Z,78.39
2022-12-08T02:06:47.543Z,79.31
2022-12-08T02:09:14.680Z,79.42
2022-12-08T02:11:41.081Z,77.41
2022-12-08T02:14:10.829Z,79.40
2022-12-08T02:16:45.538Z,77.88
2022-12-08T02:19:49.673Z,78.01
2022-12-08T02:22:34.780Z,76.99
2022-12-08T02:25:12.268Z,80.13
2022-12-08T02:28:04.133Z,79.84
2022-12-08T02:30:43.934Z,78.43
2022-12-08T02:33:48.247Z,77.88
2022-12-08T02:36:28.957Z,77.26
2022-12-08T02:39:52.333Z,77.99
2022-12-08T02:42:30.663Z,77.05
2022-12-08T02:45:18.962Z,79.47
2022-12-08T02:47:45.610Z,78.40
2022-12-08T02:50:12.741Z,77.48
2022-12-08T02:52:45.084Z,77.85
2022-12-08T02:55:20.521Z,78.60
2022-12-08T02:58:02.045Z,76.13
2022-12-08T03:00:38.300Z,78.28
2022-12-08T03:03:45.352Z,78.55
2022-12-08T03:06:49.119Z,77.33
2022-12-08T03:09:37.202Z,77.38
2022-12-08T03:12:16.684Z,78.06
2022-12-08T03:14:48.019Z,76.00
2022-12-08T03:17:17.113Z,76.08
2022-12-08T03:19:45.177Z,77.20
2022-12-08T03:22:13.449Z,77.59
2022-12-08T03:24:43.477Z,76.53
2022-12-08T03:27:20.010Z,76.06
2022-12-08T03:29:52.088Z,76.79
2022-12-08T03:32:44.285Z,75.73
2022-12-08T03:35:17.643Z,76.92
2022-12-08T03:37:44.233Z,77.40
2022-12-08T03:40:14.820Z,75.68
2022-12-08T03:42:41.291Z,75.61
2022-12-08T03:45:07.935Z,76.55
2022-12-08T03:47:34.408Z,77.68
2022-12-08T03:50:00.908Z,76.51
2022-12-08T03:52:27.366Z,77.07
2022-12-08T03:54:53.834Z,77.85
2022-12-08T03:57:21.613Z,77.22
2022-12-08T03:59:48.065Z,77.67
2022-12-08T04:02:14.584Z,77.35
2022-12-08T04:04:41.076Z,77.12
2022-12-08T04:07:07.487Z,76.29
2022-12-08T04:09:33.901Z,75.22
2022-12-08T04:12:00.353Z,77.04
2022-12-08T04:14:26.799Z,75.02
2022-12-08T04:16:53.202Z,75.57
2022-12-08T04:19:19.723Z,75.27
2022-12-08T04:21:46.216Z,76.84
2022-12-08T04:24:12.836Z,77.84
2022-12-08T04:26:39.295Z,75.96
2022-12-08T04:29:05.714Z,75.56
2022-12-08T04:31:32.212Z,75.08
2022-12-08T04:33:58.652Z,74.16
2022-12-08T04:36:25.141Z,75.01
2022-12-08T04:38:51.570Z,75.58
2022-12-08T04:41:18.044Z,74.71
2022-12-08T04:43:45.133Z,75.16
2022-12-08T04:46:11.640Z,76.13
2022-12-08T04:48:39.197Z,75.48
2022-12-08T04:51:06.245Z,75.98
2022-12-08T04:53:33.269Z,75.38
2022-12-08T04:55:59.761Z,76.47
2022-12-08T04:58:26.203Z,75.09
2022-12-08T05:00:52.731Z,75.06
2022-12-08T05:03:25.154Z,74.24
2022-12-08T05:05:54.641Z,77.16
2022-12-08T05:08:21.291Z,76.42
2022-12-08T05:10:47.757Z,76.81
2022-12-08T05:13:14.229Z,75.92
2022-12-08T05:15:40.704Z,75.99
2022-12-08T05:18:07.501Z,74.26
2022-12-08T05:20:34.542Z,74.59
2022-12-08T05:23:01.099Z,74.30
2022-12-08T05:25:28.005Z,74.36
2022-12-08T05:28:06.138Z,74.46
2022-12-08T05:30:32.835Z,74.71
2022-12-08T05:32:59.275Z,76.73
2022-12-08T05:35:25.723Z,77.18
2022-12-08T05:37:53.900Z,75.95
2022-12-08T05:40:20.356Z,77.11
2022-12-08T05:42:46.796Z,78.22
2022-12-08T05:45:13.390Z,77.60
2022-12-08T05:47:39.805Z,76.75
2022-12-08T05:50:07.128Z,75.37
2022-12-08T05:52:33.798Z,75.58
2022-12-08T05:55:00.353Z,74.86
2022-12-08T05:57:26.758Z,75.43
2022-12-08T05:59:53.417Z,74.38
2022-12-08T06:02:19.911Z,75.56
2022-12-08T06:04:46.479Z,74.78
2022-12-08T06:07:16.063Z,75.24
2022-12-08T06:09:42.966Z,75.44
2022-12-08T06:12:11.689Z,76.87
2022-12-08T06:14:39.130Z,75.35
2022-12-08T06:17:05.799Z,74.74
2022-12-08T06:19:32.231Z,74.78
2022-12-08T06:21:58.698Z,77.58
2022-12-08T06:24:25.125Z,75.41
2022-12-08T06:26:51.602Z,75.31
2022-12-08T06:29:18.056Z,74.27
2022-12-08T06:31:44.563Z,75.59
2022-12-08T06:34:11.094Z,76.93
2022-12-08T06:36:37.594Z,76.87
2022-12-08T06:39:04.187Z,77.20
2022-12-08T06:41:30.707Z,74.80
2022-12-08T06:43:57.637Z,74.14
2022-12-08T06:46:24.645Z,77.26
2022-12-08T06:48:51.182Z,77.04
2022-12-08T06:51:19.886Z,76.46
2022-12-08T06:53:47.288Z,74.42
2022-12-08T06:56:15.712Z,77.25
2022-12-08T06:58:46.113Z,76.44
2022-12-08T07:01:16.996Z,76.09
2022-12-08T07:03:43.729Z,75.62
2022-12-08T07:06:16.429Z,78.05
2022-12-08T07:08:43.031Z,77.89
2022-12-08T07:11:12.358Z,76.18
2022-12-08T07:13:40.754Z,77.59
2022-12-08T07:16:09.463Z,78.09
2022-12-08T07:18:36.648Z,79.92
2022-12-08T07:21:08.858Z,79.38
2022-12-08T07:23:35.737Z,80.65
2022-12-08T07:26:04.168Z,80.31
2022-12-08T07:28:35.392Z,80.99
2022-12-08T07:31:02.551Z,81.79
2022-12-08T07:33:29.271Z,78.82
2022-12-08T07:36:01.774Z,78.79
2022-12-08T07:38:28.631Z,78.59
2022-12-08T07:40:55.335Z,78.95
2022-12-08T07:43:23.116Z,78.83
2022-12-08T07:45:50.741Z,78.54
2022-12-08T07:48:19.452Z,77.58
2022-12-08T07:50:46.446Z,79.47
2022-12-08T07:53:13.549Z,79.75
2022-12-08T07:55:41.225Z,79.26
2022-12-08T07:58:07.987Z,77.82
2022-12-08T08:00:34.538Z,79.24
2022-12-08T08:03:01.215Z,77.76
2022-12-08T08:05:27.697Z,79.24
2022-12-08T08:07:54.230Z,80.44
2022-12-08T08:10:20.734Z,78.88
2022-12-08T08:12:47.755Z,79.57
2022-12-08T08:15:14.260Z,77.49
2022-12-08T08:17:40.795Z,77.51
2022-12-08T08:20:08.375Z,78.11
2022-12-08T08:22:35.439Z,78.96
2022-12-08T08:25:01.862Z,80.75
2022-12-08T08:27:28.304Z,81.22
2022-12-08T08:29:55.837Z,81.57
2022-12-08T08:32:22.294Z,80.00
2022-12-08T08:34:48.750Z,80.00
2022-12-08T08:37:15.266Z,80.45
2022-12-08T08:39:43.014Z,80.84
2022-12-08T08:42:09.515Z,82.34
2022-12-08T08:44:37.386Z,82.67
2022-12-08T08:47:03.831Z,82.20
2022-12-08T08:49:30.284Z,80.33
2022-12-08T08:51:56.791Z,83.07
2022-12-08T08:54:23.352Z,81.41
2022-12-08T08:56:49.777Z,80.64
2022-12-08T08:59:16.243Z,81.22
2022-12-08T09:01:42.703Z,79.37
2022-12-08T09:04:10.362Z,80.32
2022-12-08T09:06:37.031Z,80.92
2022-12-08T09:09:04.090Z,82.19
2022-12-08T09:11:32.018Z,82.36
2022-12-08T09:13:58.457Z,81.50
2022-12-08T09:16:25.074Z,81.06
2022-12-08T09:18:51.850Z,81.66
2022-12-08T09:21:22.607Z,82.24
2022-12-08T09:23:50.645Z,81.49
2022-12-08T09:26:17.274Z,81.77
2022-12-08T09:28:46.444Z,81.83
2022-12-08T09:31:17.474Z,82.13
2022-12-08T09:33:44.098Z,83.24
2022-12-08T09:36:11.771Z,83.55
2022-12-08T09:38:38.949Z,82.56
2022-12-08T09:41:29.423Z,81.81
2022-12-08T09:44:47.538Z,83.35
2022-12-08T09:47:36.332Z,83.23
2022-12-08T09:50:37.580Z,83.58
2022-12-08T09:53:14.902Z,84.61
2022-12-08T09:55:59.624Z,80.98
2022-12-08T09:58:51.931Z,82.34
2022-12-08T10:01:20.453Z,82.84
2022-12-08T10:03:47.976Z,82.19
2022-12-08T10:06:21.404Z,81.10
2022-12-08T10:09:18.303Z,82.87
2022-12-08T10:12:17.329Z,81.43
2022-12-08T10:14:47.736Z,80.84
2022-12-08T10:17:25.512Z,79.80
2022-12-08T10:19:59.523Z,81.88
2022-12-08T10:22:31.035Z,80.23
2022-12-08T10:25:06.973Z,83.62
2022-12-08T10:27:37.282Z,84.79
2022-12-08T10:30:18.545Z,84.34
2022-12-08T10:32:47.958Z,82.35
2022-12-08T10:35:16.847Z,83.46
2022-12-08T10:38:01.496Z,84.79
2022-12-08T10:40:34.943Z,82.82
2022-12-08T10:43:05.158Z,83.14
2022-12-08T10:45:38.642Z,83.59
2022-12-08T10:48:06.939Z,82.51
2022-12-08T10:50:42.639Z,81.68
2022-12-08T10:53:09.016Z,83.37
2022-12-08T10:55:47.068Z,83.91
2022-12-08T10:58:44.965Z,81.08
2022-12-08T11:01:21.944Z,81.58
2022-12-08T11:03:53.010Z,82.42
2022-12-08T11:06:28.518Z,81.74
2022-12-08T11:09:00.532Z,83.83
2022-12-08T11:11:47.527Z,82.59
2022-12-08T11:14:20.158Z,81.87
2022-12-08T11:16:46.672Z,82.67
2022-12-08T11:19:17.851Z,82.31
2022-12-08T11:21:46.032Z,83.41
2022-12-08T11:24:15.216Z,82.68
2022-12-08T11:26:59.347Z,82.46
2022-12-08T11:29:28.081Z,84.07
2022-12-08T11:32:02.763Z,84.20
2022-12-08T11:34:42.656Z,83.37
2022-12-08T11:37:35.688Z,82.55
2022-12-08T11:40:08.005Z,81.33
2022-12-08T11:42:43.618Z,79.83
2022-12-08T11:45:19.271Z,80.36
2022-12-08T11:47:56.767Z,77.01
2022-12-08T11:50:29.624Z,79.69
2022-12-08T11:52:58.319Z,81.26
2022-12-08T11:55:49.675Z,80.83
2022-12-08T11:58:24.020Z,79.48
2022-12-08T12:00:50.497Z,79.90
2022-12-08T12:03:31.189Z,80.84
2022-12-08T12:09:22.418Z,81.56
2022-12-08T12:12:16.656Z,78.27
2022-12-08T12:15:11.539Z,78.58
2022-12-08T12:18:01.552Z,81.12
2022-12-08T12:20:39.790Z,79.00
2022-12-08T12:23:39.242Z,80.42
2022-12-08T12:26:08.879Z,78.82
2022-12-08T12:28:49.721Z,80.64
2022-12-08T12:31:21.607Z,80.38
2022-12-08T12:33:50.369Z,80.24
2022-12-08T12:36:18.737Z,80.40
2022-12-08T12:39:01.577Z,78.95
2022-12-08T12:41:32.393Z,79.54
2022-12-08T12:44:14.228Z,80.53
2022-12-08T12:46:48.244Z,80.45
2022-12-08T12:49:39.739Z,80.85
2022-12-08T12:52:15.387Z,80.97
2022-12-08T12:55:10.540Z,81.69
2022-12-08T12:57:39.142Z,80.34
2022-12-08T13:00:05.615Z,81.95
2022-12-08T13:02:44.538Z,81.09
2022-12-08T13:05:17.339Z,79.66
2022-12-08T13:07:50.129Z,81.48
2022-12-08T13:10:18.896Z,82.10
2022-12-08T13:13:01.074Z,81.79
2022-12-08T13:15:35.637Z,78.70
2022-12-08T13:18:02.331Z,77.97
2022-12-08T13:20:28.861Z,76.20
2022-12-08T13:23:13.641Z,77.33
2022-12-08T13:25:42.984Z,78.29
2022-12-08T13:28:15.492Z,78.63
2022-12-08T13:30:44.907Z,77.11
2022-12-08T13:33:18.968Z,77.18
2022-12-08T13:36:11.724Z,76.33
2022-12-08T13:38:39.027Z,78.13
2022-12-08T13:41:13.432Z,79.77
2022-12-08T13:44:50.473Z,76.90
2022-12-08T13:51:16.129Z,78.02
2022-12-08T13:58:35.305Z,74.64
2022-12-08T14:01:23.326Z,76.00
2022-12-08T14:04:30.558Z,76.76
2022-12-08T14:06:43.261Z,77.41
2022-12-08T14:09:17.623Z,77.13
2022-12-08T14:11:47.911Z,74.85
2022-12-08T14:14:53.952Z,75.12
2022-12-08T14:17:15.879Z,75.77
2022-12-08T14:19:45.617Z,74.66
2022-12-08T14:22:16.421Z,73.86
2022-12-08T14:24:50.165Z,75.62
2022-12-08T14:27:31.788Z,76.11
2022-12-08T14:30:01.568Z,75.32
2022-12-08T14:32:50.722Z,76.00
2022-12-08T14:35:26.652Z,74.64
2022-12-08T14:37:57.238Z,75.92
2022-12-08T14:40:48.068Z,73.91
2022-12-08T14:43:20.269Z,77.94
2022-12-08T14:45:49.222Z,75.75
2022-12-08T14:48:21.175Z,76.07
2022-12-08T14:51:18.433Z,74.78
2022-12-08T14:53:47.384Z,74.09
2022-12-08T14:56:26.687Z,74.43
2022-12-08T14:59:13.300Z,74.02
2022-12-08T15:01:41.190Z,75.11
2022-12-08T15:04:12.994Z,74.61
2022-12-08T15:07:07.366Z,75.38
2022-12-08T15:09:39.724Z,75.10
2022-12-08T15:12:11.895Z,76.16
2022-12-08T15:14:41.701Z,74.77
2022-12-08T15:17:29.777Z,75.00
2022-12-08T15:19:57.980Z,74.90
2022-12-08T15:22:24.881Z,74.94
2022-12-08T15:24:51.321Z,76.11
2022-12-08T15:27:19.606Z,74.55
2022-12-08T15:30:00.646Z,76.29
2022-12-08T15:32:27.230Z,75.36
2022-12-08T15:34:53.785Z,77.29
2022-12-08T15:37:26.286Z,76.64
2022-12-08T15:39:53.142Z,76.00
2022-12-08T15:42:19.667Z,75.38
2022-12-08T15:44:46.132Z,75.09
2022-12-08T15:47:21.241Z,74.42
2022-12-08T15:49:49.652Z,75.43
2022-12-08T15:52:19.723Z,75.43
2022-12-08T15:54:46.594Z,75.76
2022-12-08T15:57:44.195Z,74.42
2022-12-08T16:07:12.338Z,75.18
2022-12-08T16:09:12.420Z,75.02
2022-12-08T16:12:08.240Z,76.29
2022-12-08T16:17:23.482Z,75.69
2022-12-08T16:19:50.031Z,75.71
2022-12-08T16:22:54.100Z,75.20
2022-12-08T16:25:21.625Z,75.03
2022-12-08T16:28:36.826Z,74.98
2022-12-08T16:30:41.103Z,74.63
2022-12-08T16:33:07.908Z,75.10
2022-12-08T16:35:34.505Z,74.96
2022-12-08T16:38:01.079Z,74.68
2022-12-08T16:40:27.510Z,75.20
2022-12-08T16:42:54.594Z,75.48
2022-12-08T16:45:23.093Z,75.48
2022-12-08T16:47:51.238Z,75.42
2022-12-08T16:50:27.740Z,75.62
2022-12-08T16:52:58.316Z,75.62
2022-12-08T16:55:24.784Z,74.98
2022-12-08T16:57:51.334Z,75.69
2022-12-08T17:00:20.862Z,75.89
2022-12-08T17:02:47.373Z,77.19
2022-12-08T17:05:15.908Z,77.48
2022-12-08T17:07:43.946Z,77.95
2022-12-08T17:10:13.536Z,77.68
2022-12-08T17:12:40.049Z,77.10
2022-12-08T17:15:13.953Z,76.25
2022-12-08T17:17:41.114Z,75.89
2022-12-08T17:20:12.177Z,76.02
2022-12-08T17:22:38.804Z,75.58
2022-12-08T17:25:05.953Z,75.83
2022-12-08T17:27:32.464Z,75.32
2022-12-08T17:29:59.229Z,76.66
2022-12-08T17:32:25.800Z,75.95
2022-12-08T17:34:52.302Z,75.79
2022-12-08T17:37:19.502Z,75.52
2022-12-08T17:39:45.991Z,75.33
2022-12-08T17:42:12.444Z,75.54
2022-12-08T17:44:39.022Z,75.09
2022-12-08T17:47:05.654Z,75.02
2022-12-08T17:49:33.882Z,74.86
2022-12-08T17:52:03.187Z,75.17
2022-12-08T17:54:30.195Z,75.24
2022-12-08T17:56:58.586Z,75.12
2022-12-08T17:59:26.538Z,74.74
2022-12-08T18:01:54.416Z,75.32
2022-12-08T18:04:21.478Z,75.82
2022-12-08T18:06:48.137Z,76.74
2022-12-08T18:09:15.544Z,78.39
2022-12-08T18:11:43.269Z,77.20
2022-12-08T18:14:11.067Z,76.81
2022-12-08T18:16:40.376Z,78.02
2022-12-08T18:19:07.915Z,78.75
2022-12-08T18:21:35.144Z,76.93
2022-12-08T18:24:02.201Z,78.13
2022-12-08T18:26:30.564Z,77.56
2022-12-08T18:28:57.759Z,78.36
2022-12-08T18:31:24.534Z,76.82
2022-12-08T18:33:51.954Z,76.42
2022-12-08T18:36:20.843Z,75.96
2022-12-08T18:38:47.779Z,76.84
2022-12-08T18:41:17.304Z,77.15
2022-12-08T18:43:43.948Z,77.13
2022-12-08T18:46:12.187Z,75.47
2022-12-08T18:48:41.353Z,76.38
2022-12-08T18:51:15.633Z,75.75
2022-12-08T18:53:43.262Z,75.67
2022-12-08T18:56:22.082Z,77.00
2022-12-08T18:58:48.632Z,77.88
2022-12-08T19:01:15.356Z,78.96
2022-12-08T19:03:52.768Z,77.38
2022-12-08T19:06:29.717Z,76.62
2022-12-08T19:08:56.518Z,77.10
2022-12-08T19:11:26.506Z,75.76
2022-12-08T19:13:54.391Z,77.08
2022-12-08T19:16:21.888Z,76.24
2022-12-08T19:18:48.386Z,76.81
2022-12-08T19:21:14.842Z,76.77
2022-12-08T19:23:41.389Z,75.83
2022-12-08T19:26:08.677Z,75.91
2022-12-08T19:28:35.459Z,76.62
2022-12-08T19:31:09.350Z,75.92
2022-12-08T19:33:37.514Z,75.57
2022-12-08T19:36:09.154Z,74.98
2022-12-08T19:38:55.873Z,75.05
2022-12-08T19:41:41.784Z,74.76
2022-12-08T19:44:16.685Z,74.42
2022-12-08T19:46:43.358Z,75.10
2022-12-08T19:49:09.813Z,74.11
2022-12-08T19:51:36.347Z,74.93
2022-12-08T19:54:02.849Z,74.89
2022-12-08T19:56:29.387Z,74.33
2022-12-08T19:58:55.834Z,75.25
2022-12-08T20:01:22.306Z,74.68
2022-12-08T20:03:48.789Z,74.83
2022-12-08T20:06:17.989Z,74.38
2022-12-08T20:08:50.233Z,74.87
2022-12-08T20:11:17.098Z,74.45
2022-12-08T20:13:47.707Z,74.49
2022-12-08T20:16:16.012Z,74.34
2022-12-08T20:18:43.985Z,75.46
2022-12-08T20:21:12.149Z,74.90
2022-12-08T20:23:38.618Z,74.92
2022-12-08T20:26:11.261Z,75.46
2022-12-08T20:28:37.907Z,74.85
2022-12-08T20:31:05.272Z,75.29
2022-12-08T20:33:31.864Z,75.49
2022-12-08T20:36:05.066Z,77.04
2022-12-08T20:38:31.885Z,78.28
2022-12-08T20:40:59.215Z,77.95
2022-12-08T20:43:26.098Z,77.32
2022-12-08T20:45:52.536Z,77.51
2022-12-08T20:48:19.075Z,77.37
2022-12-08T20:50:45.583Z,77.23
2022-12-08T20:53:12.128Z,76.22
2022-12-08T20:55:41.229Z,75.23
2022-12-08T20:58:07.718Z,75.49
2022-12-08T21:00:34.439Z,75.40
2022-12-08T21:03:01.092Z,75.08
2022-12-08T21:05:27.867Z,75.13
2022-12-08T21:07:54.499Z,75.66
2022-12-08T21:10:20.984Z,74.90
2022-12-08T21:12:47.621Z,75.37
2022-12-08T21:15:14.068Z,75.27
2022-12-08T21:17:40.890Z,74.47
2022-12-08T21:20:08.184Z,75.10
2022-12-08T21:22:34.968Z,75.12
2022-12-08T21:25:01.928Z,75.16
2022-12-08T21:27:28.499Z,74.68
2022-12-08T21:29:54.991Z,74.58
2022-12-08T21:32:25.666Z,74.64
2022-12-08T21:34:55.171Z,74.63
2022-12-08T21:37:21.636Z,74.44
2022-12-08T21:39:48.313Z,74.28
2022-12-08T21:42:34.414Z,74.51
2022-12-08T21:45:01.370Z,74.67
2022-12-08T21:47:27.966Z,75.28
2022-12-08T21:49:54.493Z,74.82
2022-12-08T21:52:21.129Z,75.36
2022-12-08T21:54:47.685Z,74.89
2022-12-08T21:57:14.364Z,74.68
2022-12-08T21:59:40.886Z,74.21
2022-12-08T22:02:10.538Z,74.81
2022-12-08T22:04:37.235Z,75.00
2022-12-08T22:07:03.930Z,74.78
2022-12-08T22:09:30.990Z,75.05
2022-12-08T22:11:57.634Z,74.92
2022-12-08T22:14:24.116Z,74.27
2022-12-08T22:16:50.707Z,74.50
2022-12-08T22:19:17.365Z,74.51
2022-12-08T22:21:43.989Z,74.28
2022-12-08T22:24:10.692Z,74.77
2022-12-08T22:26:37.214Z,74.63
2022-12-08T22:29:03.739Z,74.47
2022-12-08T22:31:30.432Z,74.92
2022-12-08T22:33:58.923Z,75.07
2022-12-08T22:36:27.683Z,74.53
2022-12-08T22:38:55.012Z,74.19
2022-12-08T22:41:22.197Z,74.31
2022-12-08T22:43:49.911Z,74.81
2022-12-08T22:46:24.991Z,74.55
2022-12-08T22:48:52.507Z,74.75
2022-12-08T22:51:19.512Z,75.38
2022-12-08T22:53:47.409Z,75.58
2022-12-08T22:56:15.338Z,75.13
2022-12-08T22:58:42.713Z,74.78
2022-12-08T23:01:20.668Z,75.33
2022-12-08T23:03:47.320Z,75.03
2022-12-08T23:06:14.052Z,74.24
2022-12-08T23:08:40.742Z,74.61
2022-12-08T23:11:07.250Z,74.56
2022-12-08T23:13:33.756Z,73.74
2022-12-08T23:16:00.245Z,74.82
2022-12-08T23:18:26.748Z,74.92
2022-12-08T23:20:53.491Z,75.25
2022-12-08T23:23:19.926Z,74.99
2022-12-08T23:25:46.465Z,75.33
2022-12-08T23:28:13.229Z,75.15
2022-12-08T23:30:40.786Z,75.23
2022-12-08T23:33:07.336Z,75.02
2022-12-08T23:35:34.054Z,74.84
2022-12-08T23:38:00.753Z,74.67
2022-12-08T23:40:27.512Z,74.89
2022-12-08T23:42:53.996Z,74.49
2022-12-08T23:45:22.369Z,75.21
2022-12-08T23:47:49.017Z,75.29
2022-12-08T23:50:15.516Z,74.69
2022-12-08T23:52:42.141Z,74.48
2022-12-08T23:55:09.429Z,74.69
2022-12-08T23:57:36.689Z,74.40
